^^
Saratoga-Weather Station Historical Data
Daily Summary for July 19, 2020 Units:  Both    English   Metric
Daily Weekly Monthly Yearly Custom
  High: Low: Average:
Temperature: 45.9 °F /  7.7 °C 40.3 °F /  4.6 °C 43 °F /  6.1 °C
Dew Point: 41.2 °F /  5.1 °C 32.7 °F /  0.4 °C 37.4 °F /  3 °C
Humidity: 92% 61% 81%
Wind Speed: 17mph /  27.4km/h - 4.9mph /  7.9km/h
Wind Gust: 32mph /  51.5km/h - -
Wind- - WSW
Pressure: 30.3 in /  1024.4 hPa 30 in /  1016.9 hPa -
Precipitation: 0.27 in /  6.9 mm    
Historical Graphs
 
 
Tabular Data for July 19, 2020
Time Temperature Dew Point Pressure Wind Wind Speed Wind Gust Humidity Rainfall Rate (Hourly) solar
00:04 43.2 °F /  6.2 °C 39.6 °F /  4.2 °C 30.2in /  1021.0hPa North 2mph /  3.2km/h 3mph /  4.8km/h 87% 0in /  0.0mm 0 W/m2
00:09 43.3 °F /  6.3 °C 39.7 °F /  4.3 °C 30.1in /  1020.7hPa West 0.9mph /  1.4km/h 6mph /  9.7km/h 87% 0in /  0.0mm 0 W/m2
00:14 43.3 °F /  6.3 °C 39.7 °F /  4.3 °C 30.1in /  1020.7hPa NE 0.9mph /  1.4km/h 3mph /  4.8km/h 87% 0in /  0.0mm 0 W/m2
00:19 43.5 °F /  6.4 °C 39.9 °F /  4.4 °C 30.1in /  1020.3hPa West 2mph /  3.2km/h 6mph /  9.7km/h 87% 0in /  0.0mm 0 W/m2
00:24 43.5 °F /  6.4 °C 39.9 °F /  4.4 °C 30.1in /  1020.7hPa North 2mph /  3.2km/h 9mph /  14.5km/h 87% 0in /  0.0mm 0 W/m2
00:29 43.7 °F /  6.5 °C 40.1 °F /  4.5 °C 30.1in /  1020.7hPa NNW 4mph /  6.4km/h 7mph /  11.3km/h 87% 0in /  0.0mm 0 W/m2
00:34 43.9 °F /  6.6 °C 39.9 °F /  4.4 °C 30.1in /  1020.3hPa Calm   9mph /  14.5km/h 86% 0in /  0.0mm 0 W/m2
00:39 44.1 °F /  6.7 °C 40.1 °F /  4.5 °C 30.1in /  1020.3hPa NNW 2mph /  3.2km/h 4mph /  6.4km/h 86% 0in /  0.0mm 0 W/m2
00:44 44.1 °F /  6.7 °C 40.1 °F /  4.5 °C 30.1in /  1020.3hPa SSW 2.9mph /  4.7km/h 10mph /  16.1km/h 86% 0in /  0.0mm 0 W/m2
00:49 44.1 °F /  6.7 °C 40.1 °F /  4.5 °C 30.1in /  1020.3hPa WNW 2mph /  3.2km/h 5mph /  8km/h 86% 0in /  0.0mm 0 W/m2
00:54 44.2 °F /  6.8 °C 40.3 °F /  4.6 °C 30.1in /  1020.0hPa NW 6mph /  9.7km/h 10mph /  16.1km/h 86% 0in /  0.0mm 0 W/m2
01:00 44.2 °F /  6.8 °C 40.3 °F /  4.6 °C 30.1in /  1020.0hPa North 2mph /  3.2km/h 3mph /  4.8km/h 86% 0in /  0.0mm 0 W/m2
01:05 44.2 °F /  6.8 °C 40.3 °F /  4.6 °C 30.1in /  1020.0hPa NNE 0.9mph /  1.4km/h 5mph /  8km/h 86% 0in /  0.0mm 0 W/m2
01:10 44.4 °F /  6.9 °C 40.5 °F /  4.7 °C 30.1in /  1020.0hPa WNW 4mph /  6.4km/h 8mph /  12.9km/h 86% 0in /  0.0mm 0 W/m2
01:15 44.4 °F /  6.9 °C 40.5 °F /  4.7 °C 30.1in /  1019.6hPa WNW 8.1mph /  13km/h 9mph /  14.5km/h 86% 0in /  0.0mm 0 W/m2
01:20 44.4 °F /  6.9 °C 40.5 °F /  4.7 °C 30.1in /  1019.6hPa WNW 4.9mph /  7.9km/h 8mph /  12.9km/h 86% 0in /  0.0mm 0 W/m2
01:25 44.4 °F /  6.9 °C 40.5 °F /  4.7 °C 30.1in /  1019.6hPa West 2mph /  3.2km/h 5mph /  8km/h 86% 0.01in /  0.2mm 0 W/m2
01:30 44.2 °F /  6.8 °C 40.3 °F /  4.6 °C 30.1in /  1019.6hPa WSW 4mph /  6.4km/h 11mph /  17.7km/h 86% 0.01in /  0.2mm 0 W/m2
01:35 44.2 °F /  6.8 °C 40.3 °F /  4.6 °C 30.1in /  1019.6hPa WSW 4.9mph /  7.9km/h 7mph /  11.3km/h 86% 0.01in /  0.2mm 0 W/m2
01:40 44.2 °F /  6.8 °C 40.6 °F /  4.8 °C 30.1in /  1019.3hPa NW 2mph /  3.2km/h 12mph /  19.3km/h 87% 0.01in /  0.2mm 0 W/m2
01:45 44.1 °F /  6.7 °C 40.5 °F /  4.7 °C 30.1in /  1019.3hPa SW 0.9mph /  1.4km/h 7mph /  11.3km/h 87% 0.02in /  0.5mm 0 W/m2
01:50 44.1 °F /  6.7 °C 40.8 °F /  4.9 °C 30.1in /  1019.0hPa West 2mph /  3.2km/h 12mph /  19.3km/h 88% 0.02in /  0.5mm 0 W/m2
01:55 43.9 °F /  6.6 °C 40.6 °F /  4.8 °C 30.1in /  1019.0hPa NW 4mph /  6.4km/h 5mph /  8km/h 88% 0.02in /  0.5mm 0 W/m2
02:00 43.9 °F /  6.6 °C 40.8 °F /  4.9 °C 30.1in /  1019.0hPa NNW 4mph /  6.4km/h 10mph /  16.1km/h 89% 0.02in /  0.5mm 0 W/m2
02:05 43.9 °F /  6.6 °C 40.8 °F /  4.9 °C 30.1in /  1019.0hPa NNW 4mph /  6.4km/h 8mph /  12.9km/h 89% 0.02in /  0.5mm 0 W/m2
02:10 43.9 °F /  6.6 °C 40.8 °F /  4.9 °C 30.1in /  1019.0hPa West 2mph /  3.2km/h 16mph /  25.7km/h 89% 0.04in /  1.0mm 0 W/m2
02:15 43.7 °F /  6.5 °C 41 °F /  5 °C 30.1in /  1018.6hPa NW 2mph /  3.2km/h 4mph /  6.4km/h 90% 0.04in /  1.0mm 0 W/m2
02:20 43.7 °F /  6.5 °C 41 °F /  5 °C 30.1in /  1018.6hPa ENE 2.9mph /  4.7km/h 15mph /  24.1km/h 90% 0.04in /  1.0mm 0 W/m2
02:25 43.7 °F /  6.5 °C 41 °F /  5 °C 30.1in /  1018.3hPa WNW 4mph /  6.4km/h 6mph /  9.7km/h 90% 0.03in /  0.8mm 0 W/m2
02:30 43.7 °F /  6.5 °C 41 °F /  5 °C 30.1in /  1018.3hPa WNW 2mph /  3.2km/h 8mph /  12.9km/h 90% 0.04in /  1.0mm 0 W/m2
02:35 43.7 °F /  6.5 °C 41 °F /  5 °C 30.1in /  1018.3hPa NNE 6mph /  9.7km/h 7mph /  11.3km/h 90% 0.04in /  1.0mm 0 W/m2
02:40 43.7 °F /  6.5 °C 41 °F /  5 °C 30.1in /  1018.0hPa WNW 4mph /  6.4km/h 7mph /  11.3km/h 90% 0.05in /  1.3mm 0 W/m2
02:45 43.7 °F /  6.5 °C 41 °F /  5 °C 30.1in /  1018.3hPa NNW 4mph /  6.4km/h 13mph /  20.9km/h 90% 0.04in /  1.0mm 0 W/m2
02:50 43.7 °F /  6.5 °C 41 °F /  5 °C 30.1in /  1018.0hPa North 0.9mph /  1.4km/h 4mph /  6.4km/h 90% 0.05in /  1.3mm 0 W/m2
02:55 43.7 °F /  6.5 °C 41 °F /  5 °C 30.1in /  1018.0hPa SSE 2.9mph /  4.7km/h 12mph /  19.3km/h 90% 0.04in /  1.0mm 0 W/m2
03:00 43.7 °F /  6.5 °C 41.2 °F /  5.1 °C 30.1in /  1017.6hPa SW 2.9mph /  4.7km/h 6mph /  9.7km/h 91% 0.05in /  1.3mm 0 W/m2
03:05 43.5 °F /  6.4 °C 41 °F /  5 °C 30.1in /  1017.6hPa SSW 4.9mph /  7.9km/h 10mph /  16.1km/h 91% 0.06in /  1.5mm 0 W/m2
03:10 43.5 °F /  6.4 °C 41 °F /  5 °C 30.1in /  1017.6hPa WNW 4mph /  6.4km/h 7mph /  11.3km/h 91% 0.05in /  1.3mm 0 W/m2
03:15 43.5 °F /  6.4 °C 41 °F /  5 °C 30.1in /  1017.6hPa West 4mph /  6.4km/h 14mph /  22.5km/h 91% 0.06in /  1.5mm 0 W/m2
03:20 43.5 °F /  6.4 °C 41 °F /  5 °C 30.1in /  1017.6hPa NNW 4.9mph /  7.9km/h 5mph /  8km/h 91% 0.07in /  1.8mm 0 W/m2
03:25 43.3 °F /  6.3 °C 40.8 °F /  4.9 °C 30.1in /  1017.6hPa West 6.9mph /  11.1km/h 8mph /  12.9km/h 91% 0.09in /  2.3mm 0 W/m2
03:30 43.3 °F /  6.3 °C 40.8 °F /  4.9 °C 30.1in /  1017.6hPa SSW 2.9mph /  4.7km/h 7mph /  11.3km/h 91% 0.08in /  2.0mm 0 W/m2
03:35 43.3 °F /  6.3 °C 40.8 °F /  4.9 °C 30in /  1017.3hPa West 6.9mph /  11.1km/h 13mph /  20.9km/h 91% 0.09in /  2.3mm 0 W/m2
03:40 43.3 °F /  6.3 °C 40.8 °F /  4.9 °C 30in /  1017.3hPa West 4mph /  6.4km/h 8mph /  12.9km/h 91% 0.09in /  2.3mm 0 W/m2
03:45 43.3 °F /  6.3 °C 40.8 °F /  4.9 °C 30in /  1017.3hPa NW 12.1mph /  19.5km/h 12mph /  19.3km/h 91% 0.1in /  2.5mm 0 W/m2
03:50 43.2 °F /  6.2 °C 40.6 °F /  4.8 °C 30in /  1017.3hPa West 2mph /  3.2km/h 12mph /  19.3km/h 91% 0.1in /  2.5mm 0 W/m2
03:55 43.2 °F /  6.2 °C 40.6 °F /  4.8 °C 30in /  1017.3hPa WSW 4mph /  6.4km/h 6mph /  9.7km/h 91% 0.1in /  2.5mm 0 W/m2
04:00 43.2 °F /  6.2 °C 40.6 °F /  4.8 °C 30in /  1016.9hPa West 2mph /  3.2km/h 15mph /  24.1km/h 91% 0.1in /  2.5mm 0 W/m2
04:05 43.2 °F /  6.2 °C 40.6 °F /  4.8 °C 30in /  1016.9hPa SSW 6mph /  9.7km/h 8mph /  12.9km/h 91% 0.09in /  2.3mm 0 W/m2
04:10 43.2 °F /  6.2 °C 40.6 °F /  4.8 °C 30in /  1016.9hPa NW 4.9mph /  7.9km/h 32mph /  51.5km/h 91% 0.09in /  2.3mm 0 W/m2
04:15 43.2 °F /  6.2 °C 40.6 °F /  4.8 °C 30in /  1016.9hPa WNW 4mph /  6.4km/h 10mph /  16.1km/h 91% 0.08in /  2.0mm 0 W/m2
04:20 43.2 °F /  6.2 °C 40.6 °F /  4.8 °C 30in /  1016.9hPa WNW 2.9mph /  4.7km/h 5mph /  8km/h 91% 0.06in /  1.5mm 0 W/m2
04:26 43 °F /  6.1 °C 40.5 °F /  4.7 °C 30in /  1016.9hPa WNW 2mph /  3.2km/h 12mph /  19.3km/h 91% 0.05in /  1.3mm 0 W/m2
04:31 43 °F /  6.1 °C 40.5 °F /  4.7 °C 30in /  1016.9hPa WNW 4.9mph /  7.9km/h 10mph /  16.1km/h 91% 0.05in /  1.3mm 0 W/m2
04:36 43 °F /  6.1 °C 40.5 °F /  4.7 °C 30in /  1017.3hPa WNW 6.9mph /  11.1km/h 20mph /  32.2km/h 91% 0.06in /  1.5mm 0 W/m2
04:41 42.8 °F /  6 °C 40.6 °F /  4.8 °C 30in /  1016.9hPa West 2mph /  3.2km/h 13mph /  20.9km/h 92% 0.06in /  1.5mm 0 W/m2
04:46 42.6 °F /  5.9 °C 40.5 °F /  4.7 °C 30in /  1017.3hPa West 4mph /  6.4km/h 15mph /  24.1km/h 92% 0.05in /  1.3mm 0 W/m2
04:51 42.6 °F /  5.9 °C 40.5 °F /  4.7 °C 30in /  1017.3hPa WNW 2mph /  3.2km/h 12mph /  19.3km/h 92% 0.04in /  1.0mm 0 W/m2
04:56 42.8 °F /  6 °C 40.6 °F /  4.8 °C 30in /  1017.3hPa WNW 8.1mph /  13km/h 12mph /  19.3km/h 92% 0.03in /  0.8mm 0 W/m2
05:01 42.8 °F /  6 °C 40.3 °F /  4.6 °C 30in /  1017.3hPa NNW 2mph /  3.2km/h 8mph /  12.9km/h 91% 0.03in /  0.8mm 0 W/m2
05:06 43 °F /  6.1 °C 40.5 °F /  4.7 °C 30in /  1017.3hPa SW 2mph /  3.2km/h 6mph /  9.7km/h 91% 0.03in /  0.8mm 0 W/m2
05:11 43 °F /  6.1 °C 40.5 °F /  4.7 °C 30in /  1017.3hPa West 6mph /  9.7km/h 7mph /  11.3km/h 91% 0.03in /  0.8mm 0 W/m2
05:16 42.8 °F /  6 °C 40.3 °F /  4.6 °C 30in /  1017.3hPa West 8.9mph /  14.3km/h 10mph /  16.1km/h 91% 0.03in /  0.8mm 0 W/m2
05:21 42.8 °F /  6 °C 40.3 °F /  4.6 °C 30.1in /  1017.6hPa WNW 4.9mph /  7.9km/h 13mph /  20.9km/h 91% 0.03in /  0.8mm 0 W/m2
05:26 42.8 °F /  6 °C 40.3 °F /  4.6 °C 30.1in /  1017.6hPa WNW 4.9mph /  7.9km/h 9mph /  14.5km/h 91% 0.03in /  0.8mm 0 W/m2
05:31 42.8 °F /  6 °C 40.3 °F /  4.6 °C 30.1in /  1017.6hPa West 2.9mph /  4.7km/h 4mph /  6.4km/h 91% 0.02in /  0.5mm 0 W/m2
05:36 42.6 °F /  5.9 °C 40.1 °F /  4.5 °C 30.1in /  1017.6hPa NW 2.9mph /  4.7km/h 9mph /  14.5km/h 91% 0.01in /  0.2mm 0 W/m2
05:41 42.6 °F /  5.9 °C 40.1 °F /  4.5 °C 30.1in /  1017.6hPa WSW 2.9mph /  4.7km/h 8mph /  12.9km/h 91% 0in /  0.0mm 0 W/m2
05:46 42.6 °F /  5.9 °C 40.1 °F /  4.5 °C 30.1in /  1017.6hPa WNW 4mph /  6.4km/h 9mph /  14.5km/h 91% 0in /  0.0mm 0 W/m2
05:51 42.6 °F /  5.9 °C 40.1 °F /  4.5 °C 30.1in /  1018.0hPa NW 4.9mph /  7.9km/h 12mph /  19.3km/h 91% 0in /  0.0mm 0 W/m2
05:56 42.6 °F /  5.9 °C 40.1 °F /  4.5 °C 30.1in /  1018.0hPa West 8.9mph /  14.3km/h 13mph /  20.9km/h 91% 0in /  0.0mm 0 W/m2
06:01 42.4 °F /  5.8 °C 39.9 °F /  4.4 °C 30.1in /  1017.6hPa West 4mph /  6.4km/h 8mph /  12.9km/h 91% 0in /  0.0mm 0 W/m2
06:06 42.4 °F /  5.8 °C 39.9 °F /  4.4 °C 30.1in /  1018.0hPa West 2.9mph /  4.7km/h 10mph /  16.1km/h 91% 0in /  0.0mm 0 W/m2
06:11 42.3 °F /  5.7 °C 39.6 °F /  4.2 °C 30.1in /  1018.0hPa WSW 8.9mph /  14.3km/h 12mph /  19.3km/h 90% 0.01in /  0.2mm 0 W/m2
06:16 42.3 °F /  5.7 °C 39.6 °F /  4.2 °C 30.1in /  1018.0hPa NW 6mph /  9.7km/h 9mph /  14.5km/h 90% 0.01in /  0.2mm 0 W/m2
06:21 42.1 °F /  5.6 °C 39.4 °F /  4.1 °C 30.1in /  1018.0hPa WSW 6.9mph /  11.1km/h 9mph /  14.5km/h 90% 0.01in /  0.2mm 0 W/m2
06:27 41.9 °F /  5.5 °C 39.4 °F /  4.1 °C 30.1in /  1018.3hPa West 8.1mph /  13km/h 15mph /  24.1km/h 91% 0.01in /  0.2mm 0 W/m2
06:32 41.7 °F /  5.4 °C 39 °F /  3.9 °C 30.1in /  1018.3hPa WSW 12.1mph /  19.5km/h 12mph /  19.3km/h 90% 0.02in /  0.5mm 0 W/m2
06:37 41.5 °F /  5.3 °C 38.8 °F /  3.8 °C 30.1in /  1018.3hPa WNW 8.9mph /  14.3km/h 11mph /  17.7km/h 90% 0.02in /  0.5mm 0 W/m2
06:42 41.4 °F /  5.2 °C 38.7 °F /  3.7 °C 30.1in /  1018.3hPa NW 6.9mph /  11.1km/h 10mph /  16.1km/h 90% 0.02in /  0.5mm 0 W/m2
06:47 41.4 °F /  5.2 °C 38.7 °F /  3.7 °C 30.1in /  1018.3hPa WNW 8.9mph /  14.3km/h 10mph /  16.1km/h 90% 0.02in /  0.5mm 0 W/m2
06:52 41.4 °F /  5.2 °C 38.7 °F /  3.7 °C 30.1in /  1018.3hPa NW 4.9mph /  7.9km/h 11mph /  17.7km/h 90% 0.02in /  0.5mm 0 W/m2
06:57 41.4 °F /  5.2 °C 39 °F /  3.9 °C 30.1in /  1018.3hPa West 4mph /  6.4km/h 11mph /  17.7km/h 91% 0.02in /  0.5mm 0 W/m2
07:02 41.4 °F /  5.2 °C 39 °F /  3.9 °C 30.1in /  1018.3hPa West 10.1mph /  16.3km/h 12mph /  19.3km/h 91% 0.03in /  0.8mm 0 W/m2
07:07 41.4 °F /  5.2 °C 39 °F /  3.9 °C 30.1in /  1018.6hPa West 6mph /  9.7km/h 7mph /  11.3km/h 91% 0.03in /  0.8mm 0 W/m2
07:12 41.2 °F /  5.1 °C 38.8 °F /  3.8 °C 30.1in /  1018.6hPa WNW 8.9mph /  14.3km/h 14mph /  22.5km/h 91% 0.02in /  0.5mm 0 W/m2
07:17 41.2 °F /  5.1 °C 38.8 °F /  3.8 °C 30.1in /  1018.6hPa West 2.9mph /  4.7km/h 12mph /  19.3km/h 91% 0.02in /  0.5mm 0 W/m2
07:22 41.2 °F /  5.1 °C 38.8 °F /  3.8 °C 30.1in /  1018.6hPa West 14mph /  22.5km/h 14mph /  22.5km/h 91% 0.02in /  0.5mm 0 W/m2
07:27 41.2 °F /  5.1 °C 38.5 °F /  3.6 °C 30.1in /  1018.6hPa WSW 6.9mph /  11.1km/h 10mph /  16.1km/h 90% 0.02in /  0.5mm 0 W/m2
07:32 41.2 °F /  5.1 °C 38.5 °F /  3.6 °C 30.1in /  1018.6hPa WNW 10.1mph /  16.3km/h 13mph /  20.9km/h 90% 0.02in /  0.5mm 0 W/m2
07:37 41.2 °F /  5.1 °C 38.5 °F /  3.6 °C 30.1in /  1018.6hPa NW 8.1mph /  13km/h 11mph /  17.7km/h 90% 0.02in /  0.5mm 0 W/m2
07:42 41 °F /  5 °C 37.9 °F /  3.3 °C 30.1in /  1019.0hPa WNW 8.1mph /  13km/h 12mph /  19.3km/h 89% 0.02in /  0.5mm 5 W/m2
07:47 40.8 °F /  4.9 °C 37.8 °F /  3.2 °C 30.1in /  1019.0hPa West 6.9mph /  11.1km/h 9mph /  14.5km/h 89% 0.02in /  0.5mm 5 W/m2
07:53 40.8 °F /  4.9 °C 37.8 °F /  3.2 °C 30.1in /  1019.0hPa WSW 10.1mph /  16.3km/h 17mph /  27.4km/h 89% 0.02in /  0.5mm 9 W/m2
07:58 40.8 °F /  4.9 °C 37.8 °F /  3.2 °C 30.1in /  1019.0hPa NW 6.9mph /  11.1km/h 11mph /  17.7km/h 89% 0.02in /  0.5mm 12 W/m2
08:03 40.8 °F /  4.9 °C 37.8 °F /  3.2 °C 30.1in /  1019.3hPa West 6.9mph /  11.1km/h 18mph /  29km/h 89% 0in /  0.0mm 60 W/m2
08:08 40.8 °F /  4.9 °C 38.1 °F /  3.4 °C 30.1in /  1019.3hPa WNW 8.9mph /  14.3km/h 10mph /  16.1km/h 90% 0in /  0.0mm 21 W/m2
08:13 40.8 °F /  4.9 °C 38.1 °F /  3.4 °C 30.1in /  1019.3hPa SW 10.1mph /  16.3km/h 18mph /  29km/h 90% 0in /  0.0mm 12 W/m2
08:18 40.8 °F /  4.9 °C 38.1 °F /  3.4 °C 30.1in /  1019.3hPa West 4mph /  6.4km/h 6mph /  9.7km/h 90% 0in /  0.0mm 23 W/m2
08:23 40.8 °F /  4.9 °C 38.1 °F /  3.4 °C 30.1in /  1019.6hPa WNW 4.9mph /  7.9km/h 13mph /  20.9km/h 90% 0in /  0.0mm 18 W/m2
08:28 40.8 °F /  4.9 °C 38.1 °F /  3.4 °C 30.1in /  1019.6hPa NW 4.9mph /  7.9km/h 10mph /  16.1km/h 90% 0in /  0.0mm 39 W/m2
08:33 40.6 °F /  4.8 °C 37.6 °F /  3.1 °C 30.1in /  1020.0hPa West 8.1mph /  13km/h 20mph /  32.2km/h 89% 0in /  0.0mm 30 W/m2
08:38 40.5 °F /  4.7 °C 37.8 °F /  3.2 °C 30.1in /  1020.0hPa WNW 8.9mph /  14.3km/h 16mph /  25.7km/h 90% 0in /  0.0mm 26 W/m2
08:43 40.3 °F /  4.6 °C 37.6 °F /  3.1 °C 30.1in /  1020.0hPa WSW 12.1mph /  19.5km/h 17mph /  27.4km/h 90% 0in /  0.0mm 47 W/m2
08:48 40.3 °F /  4.6 °C 37.6 °F /  3.1 °C 30.1in /  1020.3hPa WSW 6.9mph /  11.1km/h 14mph /  22.5km/h 90% 0in /  0.0mm 98 W/m2
08:53 40.3 °F /  4.6 °C 37.6 °F /  3.1 °C 30.1in /  1020.3hPa WSW 6.9mph /  11.1km/h 15mph /  24.1km/h 90% 0in /  0.0mm 86 W/m2
08:58 40.3 °F /  4.6 °C 37.6 °F /  3.1 °C 30.1in /  1020.7hPa WSW 8.9mph /  14.3km/h 12mph /  19.3km/h 90% 0in /  0.0mm 63 W/m2
09:03 40.5 °F /  4.7 °C 37.8 °F /  3.2 °C 30.1in /  1020.7hPa WSW 6.9mph /  11.1km/h 12mph /  19.3km/h 90% 0in /  0.0mm 56 W/m2
09:08 40.5 °F /  4.7 °C 37.8 °F /  3.2 °C 30.1in /  1020.7hPa WSW 6.9mph /  11.1km/h 8mph /  12.9km/h 90% 0in /  0.0mm 42 W/m2
09:13 40.5 °F /  4.7 °C 37.8 °F /  3.2 °C 30.1in /  1020.7hPa West 6.9mph /  11.1km/h 10mph /  16.1km/h 90% 0in /  0.0mm 44 W/m2
09:18 40.6 °F /  4.8 °C 37.9 °F /  3.3 °C 30.2in /  1021.0hPa West 6.9mph /  11.1km/h 8mph /  12.9km/h 90% 0in /  0.0mm 53 W/m2
09:23 40.8 °F /  4.9 °C 38.1 °F /  3.4 °C 30.2in /  1021.0hPa West 6.9mph /  11.1km/h 15mph /  24.1km/h 90% 0in /  0.0mm 76 W/m2
09:28 41.2 °F /  5.1 °C 38.1 °F /  3.4 °C 30.2in /  1021.0hPa West 11mph /  17.7km/h 14mph /  22.5km/h 89% 0in /  0.0mm 197 W/m2
09:33 41.4 °F /  5.2 °C 38.3 °F /  3.5 °C 30.2in /  1021.0hPa West 6.9mph /  11.1km/h 11mph /  17.7km/h 89% 0in /  0.0mm 267 W/m2
09:38 41.5 °F /  5.3 °C 38.3 °F /  3.5 °C 30.2in /  1021.3hPa WSW 15mph /  24.1km/h 15mph /  24.1km/h 88% 0in /  0.0mm 127 W/m2
09:43 41.7 °F /  5.4 °C 38.1 °F /  3.4 °C 30.2in /  1021.3hPa West 12.1mph /  19.5km/h 13mph /  20.9km/h 87% 0in /  0.0mm 304 W/m2
09:48 41.7 °F /  5.4 °C 37.8 °F /  3.2 °C 30.2in /  1021.3hPa WSW 4mph /  6.4km/h 11mph /  17.7km/h 86% 0in /  0.0mm 315 W/m2
09:53 42.1 °F /  5.6 °C 38.1 °F /  3.4 °C 30.2in /  1021.3hPa WSW 8.1mph /  13km/h 11mph /  17.7km/h 86% 0.01in /  0.2mm 318 W/m2
09:58 42.3 °F /  5.7 °C 38.3 °F /  3.5 °C 30.2in /  1021.3hPa WNW 8.9mph /  14.3km/h 11mph /  17.7km/h 86% 0.01in /  0.2mm 237 W/m2
10:03 42.4 °F /  5.8 °C 38.3 °F /  3.5 °C 30.2in /  1021.7hPa West 10.1mph /  16.3km/h 10mph /  16.1km/h 85% 0.01in /  0.2mm 276 W/m2
10:08 42.4 °F /  5.8 °C 38.3 °F /  3.5 °C 30.2in /  1021.7hPa West 8.1mph /  13km/h 9mph /  14.5km/h 85% 0.01in /  0.2mm 139 W/m2
10:13 42.4 °F /  5.8 °C 37.9 °F /  3.3 °C 30.2in /  1021.7hPa WSW 6.9mph /  11.1km/h 17mph /  27.4km/h 84% 0.01in /  0.2mm 251 W/m2
10:18 42.4 °F /  5.8 °C 37.9 °F /  3.3 °C 30.2in /  1022.0hPa West 8.1mph /  13km/h 13mph /  20.9km/h 84% 0.01in /  0.2mm 345 W/m2
10:23 42.6 °F /  5.9 °C 38.1 °F /  3.4 °C 30.2in /  1022.0hPa WNW 8.1mph /  13km/h 17mph /  27.4km/h 84% 0.01in /  0.2mm 366 W/m2
10:28 42.8 °F /  6 °C 37.9 °F /  3.3 °C 30.2in /  1022.0hPa West 10.1mph /  16.3km/h 13mph /  20.9km/h 83% 0.01in /  0.2mm 336 W/m2
10:33 42.8 °F /  6 °C 37.8 °F /  3.2 °C 30.2in /  1022.0hPa West 8.9mph /  14.3km/h 9mph /  14.5km/h 82% 0.01in /  0.2mm 322 W/m2
10:38 42.8 °F /  6 °C 37 °F /  2.8 °C 30.2in /  1022.0hPa NW 8.9mph /  14.3km/h 18mph /  29km/h 80% 0.01in /  0.2mm 257 W/m2
10:43 42.8 °F /  6 °C 37 °F /  2.8 °C 30.2in /  1022.0hPa West 13mph /  20.9km/h 14mph /  22.5km/h 80% 0.01in /  0.2mm 163 W/m2
10:48 42.8 °F /  6 °C 37 °F /  2.8 °C 30.2in /  1022.4hPa West 8.1mph /  13km/h 14mph /  22.5km/h 80% 0.01in /  0.2mm 186 W/m2
10:53 43.2 °F /  6.2 °C 37.8 °F /  3.2 °C 30.2in /  1022.4hPa NW 6.9mph /  11.1km/h 16mph /  25.7km/h 81% 0in /  0.0mm 214 W/m2
10:58 43.3 °F /  6.3 °C 36.9 °F /  2.7 °C 30.2in /  1022.4hPa WSW 11mph /  17.7km/h 19mph /  30.6km/h 78% 0in /  0.0mm 306 W/m2
11:03 43.3 °F /  6.3 °C 36.7 °F /  2.6 °C 30.2in /  1022.4hPa NW 6mph /  9.7km/h 12mph /  19.3km/h 77% 0in /  0.0mm 111 W/m2
11:08 43.3 °F /  6.3 °C 37.2 °F /  2.9 °C 30.2in /  1022.4hPa West 12.1mph /  19.5km/h 12mph /  19.3km/h 79% 0in /  0.0mm 380 W/m2
11:13 43.2 °F /  6.2 °C 37 °F /  2.8 °C 30.2in /  1022.4hPa WSW 6.9mph /  11.1km/h 9mph /  14.5km/h 79% 0in /  0.0mm 294 W/m2
11:18 43 °F /  6.1 °C 36.9 °F /  2.7 °C 30.2in /  1022.4hPa West 4mph /  6.4km/h 13mph /  20.9km/h 79% 0in /  0.0mm 338 W/m2
11:23 43.2 °F /  6.2 °C 37 °F /  2.8 °C 30.2in /  1022.7hPa West 8.1mph /  13km/h 16mph /  25.7km/h 79% 0in /  0.0mm 269 W/m2
11:28 43 °F /  6.1 °C 37.2 °F /  2.9 °C 30.2in /  1022.4hPa NW 12.1mph /  19.5km/h 12mph /  19.3km/h 80% 0in /  0.0mm 206 W/m2
11:33 43.2 °F /  6.2 °C 37.8 °F /  3.2 °C 30.2in /  1022.4hPa West 6mph /  9.7km/h 8mph /  12.9km/h 81% 0in /  0.0mm 160 W/m2
11:38 43.3 °F /  6.3 °C 37.6 °F /  3.1 °C 30.2in /  1022.4hPa West 6.9mph /  11.1km/h 9mph /  14.5km/h 80% 0in /  0.0mm 179 W/m2
11:43 43.7 °F /  6.5 °C 37.2 °F /  2.9 °C 30.2in /  1022.4hPa WNW 6.9mph /  11.1km/h 12mph /  19.3km/h 78% 0in /  0.0mm 236 W/m2
11:48 43.7 °F /  6.5 °C 37 °F /  2.8 °C 30.2in /  1022.7hPa SW 13mph /  20.9km/h 13mph /  20.9km/h 77% 0in /  0.0mm 67 W/m2
11:53 43.3 °F /  6.3 °C 36.7 °F /  2.6 °C 30.2in /  1022.7hPa WNW 6.9mph /  11.1km/h 8mph /  12.9km/h 77% 0in /  0.0mm 95 W/m2
11:58 43.2 °F /  6.2 °C 36.1 °F /  2.3 °C 30.2in /  1022.7hPa WNW 6.9mph /  11.1km/h 11mph /  17.7km/h 76% 0in /  0.0mm 128 W/m2
12:03 43.3 °F /  6.3 °C 35.6 °F /  2 °C 30.2in /  1022.7hPa WSW 8.9mph /  14.3km/h 13mph /  20.9km/h 74% 0in /  0.0mm 113 W/m2
12:08 43.3 °F /  6.3 °C 35.6 °F /  2 °C 30.2in /  1022.7hPa West 8.9mph /  14.3km/h 12mph /  19.3km/h 74% 0in /  0.0mm 148 W/m2
12:13 43 °F /  6.1 °C 34.5 °F /  1.4 °C 30.2in /  1023.0hPa WSW 6.9mph /  11.1km/h 12mph /  19.3km/h 72% 0in /  0.0mm 141 W/m2
12:18 42.6 °F /  5.9 °C 34.2 °F /  1.2 °C 30.2in /  1023.0hPa WNW 4mph /  6.4km/h 14mph /  22.5km/h 72% 0in /  0.0mm 62 W/m2
12:23 43 °F /  6.1 °C 35.2 °F /  1.8 °C 30.2in /  1023.4hPa West 17mph /  27.4km/h 17mph /  27.4km/h 74% 0in /  0.0mm 427 W/m2
12:28 43.2 °F /  6.2 °C 34.7 °F /  1.5 °C 30.2in /  1023.4hPa West 12.1mph /  19.5km/h 17mph /  27.4km/h 72% 0in /  0.0mm 308 W/m2
12:33 43.3 °F /  6.3 °C 34.2 °F /  1.2 °C 30.2in /  1023.0hPa West 6mph /  9.7km/h 13mph /  20.9km/h 70% 0in /  0.0mm 253 W/m2
12:38 43.9 °F /  6.6 °C 34.7 °F /  1.5 °C 30.2in /  1023.0hPa WNW 12.1mph /  19.5km/h 13mph /  20.9km/h 70% 0in /  0.0mm 156 W/m2
12:43 43.9 °F /  6.6 °C 35.1 °F /  1.7 °C 30.2in /  1022.7hPa SW 8.9mph /  14.3km/h 10mph /  16.1km/h 71% 0in /  0.0mm 253 W/m2
12:48 44.1 °F /  6.7 °C 35.2 °F /  1.8 °C 30.2in /  1023.0hPa West 6.9mph /  11.1km/h 13mph /  20.9km/h 71% 0in /  0.0mm 190 W/m2
12:53 44.1 °F /  6.7 °C 35.6 °F /  2 °C 30.2in /  1023.0hPa West 12.1mph /  19.5km/h 16mph /  25.7km/h 72% 0in /  0.0mm 232 W/m2
12:59 44.1 °F /  6.7 °C 35.6 °F /  2 °C 30.2in /  1023.0hPa West 8.1mph /  13km/h 12mph /  19.3km/h 72% 0in /  0.0mm 301 W/m2
13:04 44.1 °F /  6.7 °C 34.9 °F /  1.6 °C 30.2in /  1023.0hPa NNW 4mph /  6.4km/h 13mph /  20.9km/h 70% 0in /  0.0mm 174 W/m2
13:09 44.1 °F /  6.7 °C 35.2 °F /  1.8 °C 30.2in /  1023.0hPa WSW 2.9mph /  4.7km/h 11mph /  17.7km/h 71% 0in /  0.0mm 107 W/m2
13:14 43.9 °F /  6.6 °C 35.1 °F /  1.7 °C 30.2in /  1023.0hPa West 6.9mph /  11.1km/h 11mph /  17.7km/h 71% 0in /  0.0mm 88 W/m2
13:19 43.9 °F /  6.6 °C 35.4 °F /  1.9 °C 30.2in /  1023.0hPa NW 6.9mph /  11.1km/h 8mph /  12.9km/h 72% 0in /  0.0mm 200 W/m2
13:24 43.9 °F /  6.6 °C 35.1 °F /  1.7 °C 30.2in /  1023.0hPa NNW 4.9mph /  7.9km/h 14mph /  22.5km/h 71% 0in /  0.0mm 125 W/m2
13:29 44.2 °F /  6.8 °C 35.1 °F /  1.7 °C 30.2in /  1023.0hPa West 4mph /  6.4km/h 12mph /  19.3km/h 70% 0in /  0.0mm 134 W/m2
13:34 44.6 °F /  7 °C 34.3 °F /  1.3 °C 30.2in /  1023.0hPa WNW 6.9mph /  11.1km/h 12mph /  19.3km/h 67% 0in /  0.0mm 220 W/m2
13:39 45 °F /  7.2 °C 34.7 °F /  1.5 °C 30.2in /  1023.0hPa WNW 6.9mph /  11.1km/h 10mph /  16.1km/h 67% 0in /  0.0mm 165 W/m2
13:44 45.1 °F /  7.3 °C 34.5 °F /  1.4 °C 30.2in /  1023.0hPa WSW 4mph /  6.4km/h 13mph /  20.9km/h 66% 0in /  0.0mm 206 W/m2
13:49 45.1 °F /  7.3 °C 34.9 °F /  1.6 °C 30.2in /  1023.0hPa WSW 8.1mph /  13km/h 8mph /  12.9km/h 67% 0in /  0.0mm 250 W/m2
13:54 45.3 °F /  7.4 °C 35.4 °F /  1.9 °C 30.2in /  1023.0hPa West 8.9mph /  14.3km/h 9mph /  14.5km/h 68% 0in /  0.0mm 206 W/m2
13:59 45.7 °F /  7.6 °C 35.8 °F /  2.1 °C 30.2in /  1023.0hPa WSW 6.9mph /  11.1km/h 9mph /  14.5km/h 68% 0in /  0.0mm 213 W/m2
14:04 45.3 °F /  7.4 °C 34.3 °F /  1.3 °C 30.2in /  1023.0hPa West 6mph /  9.7km/h 18mph /  29km/h 65% 0in /  0.0mm 162 W/m2
14:09 45.3 °F /  7.4 °C 34.7 °F /  1.5 °C 30.2in /  1023.4hPa West 6.9mph /  11.1km/h 12mph /  19.3km/h 66% 0in /  0.0mm 281 W/m2
14:14 45.3 °F /  7.4 °C 34.7 °F /  1.5 °C 30.2in /  1023.4hPa NW 6.9mph /  11.1km/h 12mph /  19.3km/h 66% 0in /  0.0mm 213 W/m2
14:19 45.3 °F /  7.4 °C 34.7 °F /  1.5 °C 30.2in /  1023.4hPa NW 4mph /  6.4km/h 5mph /  8km/h 66% 0in /  0.0mm 165 W/m2
14:24 45.5 °F /  7.5 °C 34.9 °F /  1.6 °C 30.2in /  1023.4hPa West 6mph /  9.7km/h 11mph /  17.7km/h 66% 0in /  0.0mm 148 W/m2
14:29 45.3 °F /  7.4 °C 34.7 °F /  1.5 °C 30.2in /  1023.4hPa West 8.9mph /  14.3km/h 10mph /  16.1km/h 66% 0in /  0.0mm 202 W/m2
14:34 45.3 °F /  7.4 °C 35.1 °F /  1.7 °C 30.2in /  1023.4hPa WNW 6.9mph /  11.1km/h 16mph /  25.7km/h 67% 0in /  0.0mm 234 W/m2
14:39 45.9 °F /  7.7 °C 35.6 °F /  2 °C 30.2in /  1023.4hPa West 8.1mph /  13km/h 12mph /  19.3km/h 67% 0in /  0.0mm 188 W/m2
14:44 45.9 °F /  7.7 °C 34.3 °F /  1.3 °C 30.2in /  1023.4hPa West 11mph /  17.7km/h 16mph /  25.7km/h 64% 0in /  0.0mm 137 W/m2
14:49 45.3 °F /  7.4 °C 33.8 °F /  1 °C 30.2in /  1023.4hPa NW 11mph /  17.7km/h 12mph /  19.3km/h 64% 0in /  0.0mm 139 W/m2
14:54 45.1 °F /  7.3 °C 34.2 °F /  1.2 °C 30.2in /  1023.4hPa WSW 8.1mph /  13km/h 12mph /  19.3km/h 65% 0in /  0.0mm 127 W/m2
14:59 45.1 °F /  7.3 °C 34.9 °F /  1.6 °C 30.2in /  1023.4hPa West 4mph /  6.4km/h 9mph /  14.5km/h 67% 0in /  0.0mm 153 W/m2
15:04 45.3 °F /  7.4 °C 34.7 °F /  1.5 °C 30.2in /  1023.4hPa West 6.9mph /  11.1km/h 9mph /  14.5km/h 66% 0in /  0.0mm 171 W/m2
15:09 45.5 °F /  7.5 °C 34.9 °F /  1.6 °C 30.2in /  1023.4hPa WSW 6mph /  9.7km/h 11mph /  17.7km/h 66% 0in /  0.0mm 188 W/m2
15:14 45.7 °F /  7.6 °C 35.1 °F /  1.7 °C 30.2in /  1023.4hPa WSW 12.1mph /  19.5km/h 16mph /  25.7km/h 66% 0in /  0.0mm 179 W/m2
15:19 45.7 °F /  7.6 °C 34.2 °F /  1.2 °C 30.2in /  1023.4hPa NNW 4mph /  6.4km/h 8mph /  12.9km/h 64% 0in /  0.0mm 158 W/m2
15:24 45.7 °F /  7.6 °C 34.2 °F /  1.2 °C 30.2in /  1023.4hPa WNW 6mph /  9.7km/h 13mph /  20.9km/h 64% 0in /  0.0mm 162 W/m2
15:29 45.7 °F /  7.6 °C 34.2 °F /  1.2 °C 30.2in /  1023.7hPa WNW 8.1mph /  13km/h 12mph /  19.3km/h 64% 0in /  0.0mm 151 W/m2
15:34 45.7 °F /  7.6 °C 34.5 °F /  1.4 °C 30.2in /  1023.7hPa West 2.9mph /  4.7km/h 6mph /  9.7km/h 65% 0in /  0.0mm 156 W/m2
15:39 45.7 °F /  7.6 °C 34.2 °F /  1.2 °C 30.2in /  1023.7hPa NW 4.9mph /  7.9km/h 10mph /  16.1km/h 64% 0in /  0.0mm 151 W/m2
15:44 45.7 °F /  7.6 °C 33.4 °F /  0.8 °C 30.2in /  1023.7hPa West 8.9mph /  14.3km/h 10mph /  16.1km/h 62% 0in /  0.0mm 137 W/m2
15:49 45.7 °F /  7.6 °C 33.1 °F /  0.6 °C 30.2in /  1023.7hPa West 8.1mph /  13km/h 12mph /  19.3km/h 61% 0in /  0.0mm 130 W/m2
15:54 45.5 °F /  7.5 °C 32.9 °F /  0.5 °C 30.2in /  1023.7hPa West 6mph /  9.7km/h 9mph /  14.5km/h 61% 0in /  0.0mm 120 W/m2
15:59 45.3 °F /  7.4 °C 32.7 °F /  0.4 °C 30.2in /  1023.7hPa West 8.1mph /  13km/h 11mph /  17.7km/h 61% 0in /  0.0mm 121 W/m2
16:04 45.3 °F /  7.4 °C 33.1 °F /  0.6 °C 30.2in /  1023.7hPa WNW 4.9mph /  7.9km/h 14mph /  22.5km/h 62% 0in /  0.0mm 102 W/m2
16:09 45.1 °F /  7.3 °C 33.3 °F /  0.7 °C 30.2in /  1023.7hPa SSW 8.9mph /  14.3km/h 14mph /  22.5km/h 63% 0in /  0.0mm 95 W/m2
16:14 45.1 °F /  7.3 °C 33.6 °F /  0.9 °C 30.2in /  1023.7hPa WNW 2.9mph /  4.7km/h 8mph /  12.9km/h 64% 0in /  0.0mm 88 W/m2
16:19 45.1 °F /  7.3 °C 34.2 °F /  1.2 °C 30.2in /  1023.7hPa NW 14mph /  22.5km/h 14mph /  22.5km/h 65% 0in /  0.0mm 95 W/m2
16:24 45.1 °F /  7.3 °C 34.2 °F /  1.2 °C 30.2in /  1023.7hPa West 8.1mph /  13km/h 8mph /  12.9km/h 65% 0in /  0.0mm 97 W/m2
16:29 45 °F /  7.2 °C 34 °F /  1.1 °C 30.2in /  1023.7hPa WNW 4mph /  6.4km/h 14mph /  22.5km/h 65% 0in /  0.0mm 79 W/m2
16:34 45 °F /  7.2 °C 34.3 °F /  1.3 °C 30.2in /  1023.7hPa WSW 6.9mph /  11.1km/h 8mph /  12.9km/h 66% 0in /  0.0mm 67 W/m2
16:39 45 °F /  7.2 °C 34.3 °F /  1.3 °C 30.2in /  1023.7hPa WNW 8.1mph /  13km/h 9mph /  14.5km/h 66% 0in /  0.0mm 62 W/m2
16:44 45 °F /  7.2 °C 34.7 °F /  1.5 °C 30.2in /  1023.7hPa WSW 6.9mph /  11.1km/h 7mph /  11.3km/h 67% 0in /  0.0mm 58 W/m2
16:49 45 °F /  7.2 °C 34.3 °F /  1.3 °C 30.2in /  1023.7hPa West 13mph /  20.9km/h 13mph /  20.9km/h 66% 0in /  0.0mm 60 W/m2
16:54 44.8 °F /  7.1 °C 34.2 °F /  1.2 °C 30.2in /  1023.7hPa West 13mph /  20.9km/h 13mph /  20.9km/h 66% 0in /  0.0mm 60 W/m2
16:59 44.8 °F /  7.1 °C 34.2 °F /  1.2 °C 30.2in /  1023.7hPa WNW 6.9mph /  11.1km/h 13mph /  20.9km/h 66% 0in /  0.0mm 54 W/m2
17:04 44.8 °F /  7.1 °C 34.2 °F /  1.2 °C 30.2in /  1023.7hPa WNW 2.9mph /  4.7km/h 5mph /  8km/h 66% 0in /  0.0mm 53 W/m2
17:09 44.8 °F /  7.1 °C 34.5 °F /  1.4 °C 30.2in /  1023.7hPa NW 2mph /  3.2km/h 4mph /  6.4km/h 67% 0in /  0.0mm 44 W/m2
17:14 44.6 °F /  7 °C 34.3 °F /  1.3 °C 30.2in /  1023.7hPa WNW 2mph /  3.2km/h 9mph /  14.5km/h 67% 0in /  0.0mm 42 W/m2
17:19 44.6 °F /  7 °C 34.3 °F /  1.3 °C 30.2in /  1023.7hPa West 2.9mph /  4.7km/h 7mph /  11.3km/h 67% 0in /  0.0mm 44 W/m2
17:24 44.4 °F /  6.9 °C 34.2 °F /  1.2 °C 30.2in /  1023.7hPa West 2.9mph /  4.7km/h 9mph /  14.5km/h 67% 0in /  0.0mm 46 W/m2
17:30 44.4 °F /  6.9 °C 34.2 °F /  1.2 °C 30.2in /  1023.7hPa WSW 2.9mph /  4.7km/h 6mph /  9.7km/h 67% 0in /  0.0mm 37 W/m2
17:35 44.2 °F /  6.8 °C 34.3 °F /  1.3 °C 30.2in /  1023.7hPa WNW 2.9mph /  4.7km/h 7mph /  11.3km/h 68% 0in /  0.0mm 23 W/m2
17:40 44.2 °F /  6.8 °C 34.3 °F /  1.3 °C 30.2in /  1023.7hPa West 2.9mph /  4.7km/h 3mph /  4.8km/h 68% 0in /  0.0mm 14 W/m2
17:45 44.1 °F /  6.7 °C 34.5 °F /  1.4 °C 30.2in /  1023.7hPa NW 0.9mph /  1.4km/h 4mph /  6.4km/h 69% 0in /  0.0mm 12 W/m2
17:50 43.9 °F /  6.6 °C 34.3 °F /  1.3 °C 30.2in /  1024.0hPa West 10.1mph /  16.3km/h 10mph /  16.1km/h 69% 0in /  0.0mm 11 W/m2
17:55 43.7 °F /  6.5 °C 34.2 °F /  1.2 °C 30.2in /  1024.0hPa West 6.9mph /  11.1km/h 9mph /  14.5km/h 69% 0in /  0.0mm 7 W/m2
18:00 43.5 °F /  6.4 °C 34 °F /  1.1 °C 30.2in /  1024.0hPa West 2.9mph /  4.7km/h 7mph /  11.3km/h 69% 0in /  0.0mm 0 W/m2
18:05 43.3 °F /  6.3 °C 33.8 °F /  1 °C 30.2in /  1024.0hPa WNW 0.9mph /  1.4km/h 4mph /  6.4km/h 69% 0in /  0.0mm 0 W/m2
18:10 43.3 °F /  6.3 °C 33.8 °F /  1 °C 30.2in /  1024.0hPa WNW 0.9mph /  1.4km/h 2mph /  3.2km/h 69% 0in /  0.0mm 0 W/m2
18:15 43.2 °F /  6.2 °C 34 °F /  1.1 °C 30.2in /  1024.0hPa WNW 2.9mph /  4.7km/h 3mph /  4.8km/h 70% 0in /  0.0mm 0 W/m2
18:20 43.2 °F /  6.2 °C 34 °F /  1.1 °C 30.2in /  1024.0hPa West 0.9mph /  1.4km/h 3mph /  4.8km/h 70% 0in /  0.0mm 0 W/m2
18:25 43 °F /  6.1 °C 34.2 °F /  1.2 °C 30.2in /  1024.0hPa Calm   2mph /  3.2km/h 71% 0in /  0.0mm 0 W/m2
18:30 43 °F /  6.1 °C 34.2 °F /  1.2 °C 30.2in /  1024.0hPa NW 2mph /  3.2km/h 2mph /  3.2km/h 71% 0in /  0.0mm 0 W/m2
18:35 42.6 °F /  5.9 °C 34.2 °F /  1.2 °C 30.2in /  1024.0hPa NW 0.9mph /  1.4km/h 1mph /  1.6km/h 72% 0in /  0.0mm 0 W/m2
18:40 42.4 °F /  5.8 °C 34.3 °F /  1.3 °C 30.2in /  1024.0hPa Calm     73% 0in /  0.0mm 0 W/m2
18:45 42.1 °F /  5.6 °C 34.3 °F /  1.3 °C 30.2in /  1024.0hPa NW 0.9mph /  1.4km/h 1mph /  1.6km/h 74% 0in /  0.0mm 0 W/m2
18:50 41.7 °F /  5.4 °C 34.3 °F /  1.3 °C 30.2in /  1024.0hPa Calm   1mph /  1.6km/h 75% 0in /  0.0mm 0 W/m2
18:55 41.4 °F /  5.2 °C 34.3 °F /  1.3 °C 30.2in /  1024.0hPa Calm   1mph /  1.6km/h 76% 0in /  0.0mm 0 W/m2
19:00 41.2 °F /  5.1 °C 34.5 °F /  1.4 °C 30.2in /  1024.0hPa Calm   2mph /  3.2km/h 77% 0in /  0.0mm 0 W/m2
19:05 41 °F /  5 °C 34.3 °F /  1.3 °C 30.2in /  1024.0hPa Calm     77% 0in /  0.0mm 0 W/m2
19:10 40.8 °F /  4.9 °C 34.5 °F /  1.4 °C 30.2in /  1024.0hPa Calm     78% 0in /  0.0mm 0 W/m2
19:15 40.8 °F /  4.9 °C 34.5 °F /  1.4 °C 30.2in /  1024.0hPa Calm   1mph /  1.6km/h 78% 0in /  0.0mm 0 W/m2
19:20 40.8 °F /  4.9 °C 34.9 °F /  1.6 °C 30.2in /  1024.0hPa NNE 0.9mph /  1.4km/h 2mph /  3.2km/h 79% 0in /  0.0mm 0 W/m2
19:25 40.8 °F /  4.9 °C 34.9 °F /  1.6 °C 30.2in /  1024.0hPa NNE 2mph /  3.2km/h 2mph /  3.2km/h 79% 0in /  0.0mm 0 W/m2
19:30 40.8 °F /  4.9 °C 34.9 °F /  1.6 °C 30.2in /  1024.0hPa NE 0.9mph /  1.4km/h 1mph /  1.6km/h 79% 0in /  0.0mm 0 W/m2
19:36 41.4 °F /  5.2 °C 35.1 °F /  1.7 °C 30.2in /  1024.0hPa NE 0.9mph /  1.4km/h 3mph /  4.8km/h 78% 0in /  0.0mm 0 W/m2
19:41 41.5 °F /  5.3 °C 35.2 °F /  1.8 °C 30.2in /  1024.0hPa NW 2mph /  3.2km/h 4mph /  6.4km/h 78% 0in /  0.0mm 0 W/m2
19:46 42.1 °F /  5.6 °C 35.4 °F /  1.9 °C 30.3in /  1024.4hPa West 0.9mph /  1.4km/h 2mph /  3.2km/h 77% 0in /  0.0mm 0 W/m2
19:51 42.3 °F /  5.7 °C 35.6 °F /  2 °C 30.2in /  1024.0hPa NNW 0.9mph /  1.4km/h 4mph /  6.4km/h 77% 0in /  0.0mm 0 W/m2
19:56 42.3 °F /  5.7 °C 36 °F /  2.2 °C 30.2in /  1024.0hPa NNE 2mph /  3.2km/h 2mph /  3.2km/h 78% 0in /  0.0mm 0 W/m2
20:01 42.3 °F /  5.7 °C 36 °F /  2.2 °C 30.2in /  1024.0hPa Calm   2mph /  3.2km/h 78% 0in /  0.0mm 0 W/m2
20:06 42.4 °F /  5.8 °C 36.1 °F /  2.3 °C 30.2in /  1024.0hPa SW 2mph /  3.2km/h 9mph /  14.5km/h 78% 0in /  0.0mm 0 W/m2
20:11 42.4 °F /  5.8 °C 36.1 °F /  2.3 °C 30.2in /  1024.0hPa Calm   1mph /  1.6km/h 78% 0in /  0.0mm 0 W/m2
20:16 42.4 °F /  5.8 °C 36.3 °F /  2.4 °C 30.2in /  1024.0hPa ENE 5mph /  8km/h 5mph /  8km/h 79% 0in /  0.0mm 0 W/m2
20:21 42.4 °F /  5.8 °C 36.7 °F /  2.6 °C 30.2in /  1024.0hPa ESE 0.9mph /  1.4km/h 2mph /  3.2km/h 80% 0in /  0.0mm 0 W/m2
20:26 42.4 °F /  5.8 °C 36.7 °F /  2.6 °C 30.2in /  1024.0hPa Calm   1mph /  1.6km/h 80% 0in /  0.0mm 0 W/m2
20:31 42.4 °F /  5.8 °C 36.7 °F /  2.6 °C 30.2in /  1024.0hPa SSE 0.9mph /  1.4km/h 1mph /  1.6km/h 80% 0in /  0.0mm 0 W/m2
20:36 42.4 °F /  5.8 °C 37 °F /  2.8 °C 30.2in /  1024.0hPa Calm     81% 0in /  0.0mm 0 W/m2
20:41 42.3 °F /  5.7 °C 36.9 °F /  2.7 °C 30.2in /  1024.0hPa East 0.9mph /  1.4km/h 2mph /  3.2km/h 81% 0in /  0.0mm 0 W/m2
20:46 42.1 °F /  5.6 °C 37 °F /  2.8 °C 30.2in /  1024.0hPa ESE 2mph /  3.2km/h 2mph /  3.2km/h 82% 0in /  0.0mm 0 W/m2
20:51 41.9 °F /  5.5 °C 36.9 °F /  2.7 °C 30.2in /  1024.0hPa Calm     82% 0in /  0.0mm 0 W/m2
20:56 41.7 °F /  5.4 °C 36.9 °F /  2.7 °C 30.2in /  1024.0hPa Calm   1mph /  1.6km/h 83% 0in /  0.0mm 0 W/m2
21:01 41.5 °F /  5.3 °C 36.7 °F /  2.6 °C 30.2in /  1024.0hPa NE 0.9mph /  1.4km/h 2mph /  3.2km/h 83% 0in /  0.0mm 0 W/m2
21:06 41.5 °F /  5.3 °C 36.7 °F /  2.6 °C 30.2in /  1024.0hPa North 0.9mph /  1.4km/h 2mph /  3.2km/h 83% 0in /  0.0mm 0 W/m2
21:11 41.7 °F /  5.4 °C 37.2 °F /  2.9 °C 30.2in /  1024.0hPa ENE 2.9mph /  4.7km/h 3mph /  4.8km/h 84% 0in /  0.0mm 0 W/m2
21:16 41.7 °F /  5.4 °C 37.2 °F /  2.9 °C 30.2in /  1024.0hPa Calm   2mph /  3.2km/h 84% 0in /  0.0mm 0 W/m2
21:21 41.7 °F /  5.4 °C 37.2 °F /  2.9 °C 30.2in /  1024.0hPa Calm   2mph /  3.2km/h 84% 0in /  0.0mm 0 W/m2
21:26 41.7 °F /  5.4 °C 37.2 °F /  2.9 °C 30.2in /  1024.0hPa SW 0.9mph /  1.4km/h 2mph /  3.2km/h 84% 0in /  0.0mm 0 W/m2
21:31 42.1 °F /  5.6 °C 37.6 °F /  3.1 °C 30.2in /  1024.0hPa NNW 0.9mph /  1.4km/h 2mph /  3.2km/h 84% 0in /  0.0mm 0 W/m2
21:36 42.3 °F /  5.7 °C 37.4 °F /  3 °C 30.2in /  1023.7hPa Calm   2mph /  3.2km/h 83% 0in /  0.0mm 0 W/m2
21:42 42.4 °F /  5.8 °C 37.6 °F /  3.1 °C 30.2in /  1024.0hPa NW 2mph /  3.2km/h 3mph /  4.8km/h 83% 0in /  0.0mm 0 W/m2
21:47 42.4 °F /  5.8 °C 37.6 °F /  3.1 °C 30.2in /  1023.7hPa WSW 2.9mph /  4.7km/h 7mph /  11.3km/h 83% 0in /  0.0mm 0 W/m2
21:52 42.4 °F /  5.8 °C 37.6 °F /  3.1 °C 30.2in /  1023.7hPa Calm   1mph /  1.6km/h 83% 0in /  0.0mm 0 W/m2
21:57 42.4 °F /  5.8 °C 37.6 °F /  3.1 °C 30.2in /  1023.7hPa WNW 2mph /  3.2km/h 3mph /  4.8km/h 83% 0in /  0.0mm 0 W/m2
22:02 42.4 °F /  5.8 °C 37.9 °F /  3.3 °C 30.2in /  1023.7hPa NNE 0.9mph /  1.4km/h 2mph /  3.2km/h 84% 0in /  0.0mm 0 W/m2
22:07 42.4 °F /  5.8 °C 37.9 °F /  3.3 °C 30.2in /  1023.7hPa Calm   1mph /  1.6km/h 84% 0in /  0.0mm 0 W/m2
22:12 42.4 °F /  5.8 °C 37.9 °F /  3.3 °C 30.2in /  1023.7hPa SW 0.9mph /  1.4km/h 2mph /  3.2km/h 84% 0in /  0.0mm 0 W/m2
22:17 42.6 °F /  5.9 °C 38.1 °F /  3.4 °C 30.2in /  1023.4hPa Calm   4mph /  6.4km/h 84% 0in /  0.0mm 0 W/m2
22:22 42.6 °F /  5.9 °C 38.1 °F /  3.4 °C 30.2in /  1023.7hPa WNW 2.9mph /  4.7km/h 3mph /  4.8km/h 84% 0in /  0.0mm 0 W/m2
22:27 42.6 °F /  5.9 °C 38.1 °F /  3.4 °C 30.2in /  1023.4hPa North 0.9mph /  1.4km/h 1mph /  1.6km/h 84% 0in /  0.0mm 0 W/m2
22:32 42.8 °F /  6 °C 38.3 °F /  3.5 °C 30.2in /  1023.4hPa East 2.9mph /  4.7km/h 4mph /  6.4km/h 84% 0in /  0.0mm 0 W/m2
22:37 43 °F /  6.1 °C 38.5 °F /  3.6 °C 30.2in /  1023.4hPa NW 2.9mph /  4.7km/h 8mph /  12.9km/h 84% 0in /  0.0mm 0 W/m2
22:42 43 °F /  6.1 °C 38.1 °F /  3.4 °C 30.2in /  1023.4hPa WNW 2mph /  3.2km/h 7mph /  11.3km/h 83% 0in /  0.0mm 0 W/m2
22:47 43 °F /  6.1 °C 38.1 °F /  3.4 °C 30.2in /  1023.4hPa North 0.9mph /  1.4km/h 8mph /  12.9km/h 83% 0in /  0.0mm 0 W/m2
22:52 43 °F /  6.1 °C 38.5 °F /  3.6 °C 30.2in /  1023.4hPa WNW 2mph /  3.2km/h 7mph /  11.3km/h 84% 0in /  0.0mm 0 W/m2
22:57 43 °F /  6.1 °C 38.5 °F /  3.6 °C 30.2in /  1023.4hPa NNE 0.9mph /  1.4km/h 8mph /  12.9km/h 84% 0in /  0.0mm 0 W/m2
23:02 43 °F /  6.1 °C 38.5 °F /  3.6 °C 30.2in /  1023.4hPa WSW 0.9mph /  1.4km/h 4mph /  6.4km/h 84% 0in /  0.0mm 0 W/m2
23:07 43 °F /  6.1 °C 38.8 °F /  3.8 °C 30.2in /  1023.4hPa NE 0.9mph /  1.4km/h 8mph /  12.9km/h 85% 0in /  0.0mm 0 W/m2
23:12 42.8 °F /  6 °C 38.8 °F /  3.8 °C 30.2in /  1023.4hPa NW 2mph /  3.2km/h 3mph /  4.8km/h 86% 0in /  0.0mm 0 W/m2
23:18 42.6 °F /  5.9 °C 38.7 °F /  3.7 °C 30.2in /  1023.4hPa Calm   5mph /  8km/h 86% 0.01in /  0.2mm 0 W/m2
23:23 42.4 °F /  5.8 °C 38.8 °F /  3.8 °C 30.2in /  1023.4hPa North 0.9mph /  1.4km/h 2mph /  3.2km/h 87% 0.01in /  0.2mm 0 W/m2
23:28 42.4 °F /  5.8 °C 38.8 °F /  3.8 °C 30.2in /  1023.4hPa Calm   2mph /  3.2km/h 87% 0.01in /  0.2mm 0 W/m2
23:33 42.3 °F /  5.7 °C 39 °F /  3.9 °C 30.2in /  1023.4hPa West 0.9mph /  1.4km/h 4mph /  6.4km/h 88% 0.01in /  0.2mm 0 W/m2
23:38 42.3 °F /  5.7 °C 39 °F /  3.9 °C 30.2in /  1023.4hPa Calm   2mph /  3.2km/h 88% 0.02in /  0.5mm 0 W/m2
23:43 42.1 °F /  5.6 °C 39 °F /  3.9 °C 30.2in /  1023.4hPa ESE 0.9mph /  1.4km/h 4mph /  6.4km/h 89% 0.02in /  0.5mm 0 W/m2
23:48 41.9 °F /  5.5 °C 38.8 °F /  3.8 °C 30.2in /  1023.4hPa NE 0.9mph /  1.4km/h 1mph /  1.6km/h 89% 0.02in /  0.5mm 0 W/m2
23:53 41.9 °F /  5.5 °C 39.2 °F /  4 °C 30.2in /  1023.4hPa ESE 0.9mph /  1.4km/h 2mph /  3.2km/h 90% 0.02in /  0.5mm 0 W/m2
23:58 41.7 °F /  5.4 °C 39 °F /  3.9 °C 30.2in /  1023.4hPa Calm   3mph /  4.8km/h 90% 0.02in /  0.5mm 0 W/m2
Juneau County Weather
Compliments of Weather Underground - 4 mb